createdAt,value
2019-05-30T00:00:17.605Z,1.30
2019-05-30T00:03:02.359Z,1.50
2019-05-30T00:05:49.477Z,1.70
2019-05-30T00:08:36.761Z,1.57
2019-05-30T00:11:24.285Z,1.70
2019-05-30T00:14:11.999Z,1.67
2019-05-30T00:17:00.922Z,1.53
2019-05-30T00:19:47.580Z,1.60
2019-05-30T00:22:34.675Z,1.53
2019-05-30T00:25:22.614Z,1.70
2019-05-30T00:28:10.163Z,2.07
2019-05-30T00:30:58.332Z,1.70
2019-05-30T00:33:44.921Z,1.70
2019-05-30T00:36:32.405Z,1.47
2019-05-30T00:39:20.307Z,1.60
2019-05-30T00:42:07.587Z,1.93
2019-05-30T00:44:55.831Z,1.40
2019-05-30T00:47:43.039Z,1.60
2019-05-30T00:50:30.603Z,1.50
2019-05-30T00:53:17.872Z,1.70
2019-05-30T00:56:06.756Z,1.47
2019-05-30T00:58:52.863Z,1.70
2019-05-30T01:01:40.140Z,1.67
2019-05-30T01:04:27.492Z,1.90
2019-05-30T01:07:15.063Z,1.70
2019-05-30T01:10:03.184Z,1.80
2019-05-30T01:12:50.769Z,1.80
2019-05-30T01:15:38.497Z,1.47
2019-05-30T01:18:26.517Z,1.60
2019-05-30T01:21:13.723Z,1.80
2019-05-30T01:24:01.360Z,1.73
2019-05-30T01:26:48.612Z,1.60
2019-05-30T01:29:35.984Z,1.47
2019-05-30T01:32:29.682Z,2.00
2019-05-30T01:35:17.117Z,1.90
2019-05-30T01:38:06.069Z,1.60
2019-05-30T01:40:52.671Z,1.60
2019-05-30T01:43:40.317Z,1.87
2019-05-30T01:46:27.611Z,1.43
2019-05-30T01:49:15.306Z,1.50
2019-05-30T01:52:02.878Z,1.70
2019-05-30T01:54:50.130Z,1.60
2019-05-30T01:57:38.076Z,1.63
2019-05-30T02:00:26.268Z,1.67
2019-05-30T02:03:13.654Z,1.90
2019-05-30T02:06:01.445Z,1.73
2019-05-30T02:08:49.332Z,1.50
2019-05-30T02:11:36.622Z,1.40
2019-05-30T02:14:23.955Z,1.73
2019-05-30T02:17:12.173Z,1.37
2019-05-30T02:19:59.926Z,1.60
2019-05-30T02:22:47.904Z,1.40
2019-05-30T02:25:35.914Z,1.43
2019-05-30T02:28:23.388Z,1.70
2019-05-30T02:31:12.179Z,1.60
2019-05-30T02:33:58.246Z,1.83
2019-05-30T02:36:46.087Z,1.87
2019-05-30T02:39:33.870Z,2.13
2019-05-30T02:42:21.870Z,1.77
2019-05-30T02:45:10.714Z,1.70
2019-05-30T02:47:56.484Z,1.43
2019-05-30T02:50:43.756Z,1.60
2019-05-30T02:53:31.777Z,1.40
2019-05-30T02:56:19.780Z,1.53
2019-05-30T02:59:09.208Z,1.80
2019-05-30T03:02:01.797Z,1.80
2019-05-30T03:04:43.689Z,1.70
2019-05-30T03:07:31.735Z,1.47
2019-05-30T03:10:19.724Z,1.57
2019-05-30T03:13:08.287Z,1.80
2019-05-30T03:15:54.567Z,1.60
2019-05-30T03:18:42.067Z,1.40
2019-05-30T03:21:29.348Z,1.40
2019-05-30T03:24:16.731Z,1.40
2019-05-30T03:27:04.875Z,1.70
2019-05-30T03:29:52.009Z,1.50
2019-05-30T03:33:03.705Z,2.17
2019-05-30T03:35:31.342Z,1.70
2019-05-30T03:38:15.710Z,1.53
2019-05-30T03:41:04.694Z,1.83
2019-05-30T03:43:50.520Z,1.50
2019-05-30T03:46:38.677Z,1.70
2019-05-30T03:49:26.132Z,1.90
2019-05-30T03:52:17.051Z,1.80
2019-05-30T03:55:02.324Z,2.07
2019-05-30T03:57:53.418Z,1.60
2019-05-30T04:00:50.924Z,1.73
2019-05-30T04:03:38.644Z,1.97
2019-05-30T04:06:29.286Z,1.60
2019-05-30T04:09:22.407Z,1.80
2019-05-30T04:12:16.468Z,1.80
2019-05-30T04:15:04.510Z,1.60
2019-05-30T04:17:51.827Z,1.70
2019-05-30T04:20:39.100Z,1.57
2019-05-30T04:23:26.381Z,1.80
2019-05-30T04:26:15.747Z,1.80
2019-05-30T04:29:01.655Z,1.90
2019-05-30T04:31:48.779Z,1.37
2019-05-30T04:34:36.188Z,1.90
2019-05-30T04:37:23.856Z,1.97
2019-05-30T04:40:13.338Z,1.73
2019-05-30T04:42:59.178Z,1.83
2019-05-30T04:45:47.108Z,1.57
2019-05-30T04:48:34.453Z,2.00
2019-05-30T04:51:22.058Z,2.00
2019-05-30T04:54:10.319Z,1.63
2019-05-30T04:56:57.423Z,1.77
2019-05-30T04:59:44.807Z,1.70
2019-05-30T05:02:32.122Z,1.87
2019-05-30T05:05:25.945Z,1.90
2019-05-30T05:08:07.265Z,1.80
2019-05-30T05:10:55.166Z,1.83
2019-05-30T05:13:42.617Z,2.00
2019-05-30T05:16:35.664Z,1.97
2019-05-30T05:19:19.552Z,1.50
2019-05-30T05:22:05.576Z,1.70
2019-05-30T05:24:53.030Z,1.70
2019-05-30T05:27:40.357Z,1.90
2019-05-30T05:30:27.898Z,2.00
2019-05-30T05:33:16.467Z,1.83
2019-05-30T05:36:02.667Z,1.70
2019-05-30T05:38:50.520Z,1.90
2019-05-30T05:41:37.867Z,1.90
2019-05-30T05:44:25.156Z,1.90
2019-05-30T05:47:12.812Z,2.30
2019-05-30T05:50:00.650Z,1.70
2019-05-30T05:52:47.970Z,1.90
2019-05-30T05:55:35.420Z,2.17
2019-05-30T05:58:23.875Z,1.93
2019-05-30T06:01:10.724Z,1.93
2019-05-30T06:04:12.065Z,1.87
2019-05-30T06:06:45.874Z,2.10
2019-05-30T06:09:33.720Z,2.40
2019-05-30T06:12:21.830Z,1.80
2019-05-30T06:15:09.358Z,1.70
2019-05-30T06:17:57.317Z,2.10
2019-05-30T06:20:45.067Z,2.03
2019-05-30T06:23:32.662Z,2.10
2019-05-30T06:26:19.966Z,1.83
2019-05-30T06:29:07.738Z,2.10
2019-05-30T06:31:55.551Z,1.90
2019-05-30T06:34:43.090Z,2.33
2019-05-30T06:37:30.700Z,2.27
2019-05-30T06:40:19.467Z,1.83
2019-05-30T06:43:06.131Z,1.97
2019-05-30T06:45:53.487Z,2.00
2019-05-30T06:48:41.019Z,2.17
2019-05-30T06:51:29.092Z,2.00
2019-05-30T06:54:15.854Z,1.87
2019-05-30T06:57:03.430Z,2.30
2019-05-30T06:59:51.044Z,2.43
2019-05-30T07:02:38.508Z,1.87
2019-05-30T07:05:28.441Z,2.00
2019-05-30T07:08:14.272Z,2.20
2019-05-30T07:11:01.769Z,2.00
2019-05-30T07:13:48.926Z,2.17
2019-05-30T07:16:36.461Z,2.20
2019-05-30T07:19:25.357Z,2.00
2019-05-30T07:22:12.025Z,2.00
2019-05-30T07:25:00.040Z,2.00
2019-05-30T07:27:47.717Z,2.10
2019-05-30T07:30:35.825Z,2.10
2019-05-30T07:33:23.941Z,2.20
2019-05-30T07:36:11.043Z,2.20
2019-05-30T07:38:58.761Z,2.07
2019-05-30T07:42:05.000Z,2.13
2019-05-30T07:44:34.989Z,2.27
2019-05-30T07:47:22.124Z,1.97
2019-05-30T07:50:09.474Z,1.97
2019-05-30T07:52:57.316Z,1.97
2019-05-30T07:55:45.389Z,1.97
2019-05-30T07:58:33.342Z,1.90
2019-05-30T08:01:20.583Z,1.97
2019-05-30T08:04:08.282Z,2.00
2019-05-30T08:06:55.686Z,2.20
2019-05-30T08:09:42.900Z,1.90
2019-05-30T08:12:32.048Z,1.90
2019-05-30T08:15:18.090Z,2.10
2019-05-30T08:18:05.835Z,1.80
2019-05-30T08:20:53.174Z,2.07
2019-05-30T08:23:40.848Z,1.97
2019-05-30T08:26:28.338Z,1.70
2019-05-30T08:29:16.178Z,2.10
2019-05-30T08:32:03.528Z,2.33
2019-05-30T08:34:51.241Z,2.20
2019-05-30T08:37:39.472Z,2.20
2019-05-30T08:40:26.636Z,1.90
2019-05-30T08:43:14.509Z,2.20
2019-05-30T08:46:02.576Z,2.40
2019-05-30T08:48:49.923Z,2.30
2019-05-30T08:51:38.283Z,2.50
2019-05-30T08:54:24.850Z,2.40
2019-05-30T08:57:12.305Z,2.27
2019-05-30T08:59:59.901Z,3.37
2019-05-30T09:02:47.245Z,2.53
2019-05-30T09:05:35.936Z,2.23
2019-05-30T09:08:22.942Z,2.60
2019-05-30T09:11:10.292Z,2.40
2019-05-30T09:13:57.796Z,2.43
2019-05-30T09:16:46.503Z,2.20
2019-05-30T09:19:32.745Z,2.20
2019-05-30T09:22:20.145Z,2.30
2019-05-30T09:25:08.255Z,2.80
2019-05-30T09:27:56.039Z,2.93
2019-05-30T09:30:44.763Z,3.47
2019-05-30T09:33:30.993Z,2.93
2019-05-30T09:36:18.355Z,2.70
2019-05-30T09:39:07.119Z,2.87
2019-05-30T09:41:54.316Z,3.83
2019-05-30T09:44:42.257Z,2.75
2019-05-30T09:47:29.203Z,2.35
2019-05-30T09:50:16.560Z,2.70
2019-05-30T09:53:04.002Z,2.20
2019-05-30T09:55:51.687Z,2.33
2019-05-30T09:58:39.158Z,2.20
2019-05-30T10:01:26.999Z,2.10
2019-05-30T10:04:14.761Z,2.27
2019-05-30T10:07:02.768Z,2.33
2019-05-30T10:09:50.935Z,2.50
2019-05-30T10:12:38.156Z,2.50
2019-05-30T10:15:25.594Z,2.70
2019-05-30T10:18:13.599Z,2.10
2019-05-30T10:21:01.372Z,2.92
2019-05-30T10:23:49.507Z,2.20
2019-05-30T10:26:36.513Z,2.17
2019-05-30T10:29:23.705Z,2.40
2019-05-30T10:32:11.019Z,2.47
2019-05-30T10:34:58.663Z,2.77
2019-05-30T10:37:47.176Z,2.50
2019-05-30T10:40:33.620Z,2.30
2019-05-30T10:43:20.908Z,2.40
2019-05-30T10:46:08.284Z,2.27
2019-05-30T10:48:56.887Z,2.63
2019-05-30T10:51:43.694Z,2.63
2019-05-30T10:54:31.677Z,2.77
2019-05-30T10:57:19.387Z,2.57
2019-05-30T11:00:09.423Z,2.27
2019-05-30T11:02:54.982Z,2.53
2019-05-30T11:05:42.352Z,2.67
2019-05-30T11:08:30.243Z,2.77
2019-05-30T11:11:18.005Z,2.37
2019-05-30T11:14:05.906Z,2.57
2019-05-30T11:16:53.786Z,2.47
2019-05-30T11:19:40.430Z,2.27
2019-05-30T11:22:28.411Z,2.83
2019-05-30T11:25:15.495Z,2.83
2019-05-30T11:28:03.543Z,2.80
2019-05-30T11:30:51.067Z,2.53
2019-05-30T11:33:38.511Z,2.50
2019-05-30T11:36:26.098Z,2.40
2019-05-30T11:39:14.256Z,2.57
2019-05-30T11:42:01.854Z,2.30
2019-05-30T11:44:49.719Z,2.00
2019-05-30T11:47:37.111Z,2.70
2019-05-30T11:50:24.427Z,2.40
2019-05-30T11:53:12.411Z,2.50
2019-05-30T11:56:00.479Z,2.33
2019-05-30T11:58:47.137Z,2.65
2019-05-30T12:01:34.784Z,2.90
2019-05-30T12:04:22.214Z,2.42
2019-05-30T12:07:09.468Z,2.57
2019-05-30T12:09:57.002Z,2.10
2019-05-30T12:12:44.762Z,2.40
2019-05-30T12:15:32.180Z,2.17
2019-05-30T12:18:20.114Z,2.58
2019-05-30T12:21:07.576Z,2.30
2019-05-30T12:23:56.008Z,2.47
2019-05-30T12:26:43.319Z,2.27
2019-05-30T12:29:31.126Z,2.25
2019-05-30T12:32:18.546Z,2.12
2019-05-30T12:35:06.260Z,2.02
2019-05-30T12:37:58.931Z,2.25
2019-05-30T12:40:41.174Z,1.87
2019-05-30T12:43:28.659Z,2.20
2019-05-30T12:46:15.929Z,2.35
2019-05-30T12:49:03.791Z,2.05
2019-05-30T12:51:51.107Z,2.05
2019-05-30T12:54:39.036Z,1.80
2019-05-30T12:57:26.653Z,1.90
2019-05-30T13:00:18.609Z,2.00
2019-05-30T13:03:01.577Z,1.72
2019-05-30T13:05:49.114Z,1.67
2019-05-30T13:08:36.519Z,1.60
2019-05-30T13:11:24.008Z,1.70
2019-05-30T13:14:11.576Z,1.55
2019-05-30T13:16:59.686Z,1.70
2019-05-30T13:19:46.885Z,1.70
2019-05-30T13:22:34.852Z,1.50
2019-05-30T13:25:22.059Z,1.67
2019-05-30T13:28:09.430Z,1.70
2019-05-30T13:30:58.123Z,1.47
2019-05-30T13:33:44.862Z,1.77
2019-05-30T13:36:32.746Z,1.50
2019-05-30T13:39:20.752Z,1.63
2019-05-30T13:42:08.652Z,1.90
2019-05-30T13:44:56.198Z,1.82
2019-05-30T13:47:43.797Z,1.65
2019-05-30T13:50:31.452Z,1.87
2019-05-30T13:53:18.994Z,1.50
2019-05-30T13:56:06.099Z,2.10
2019-05-30T13:58:53.680Z,2.45
2019-05-30T14:01:41.205Z,2.92
2019-05-30T14:04:28.859Z,1.80
2019-05-30T14:07:16.763Z,1.80
2019-05-30T14:10:04.340Z,1.52
2019-05-30T14:12:51.750Z,2.15
2019-05-30T14:15:39.072Z,2.57
2019-05-30T14:18:26.347Z,2.30
2019-05-30T14:21:13.711Z,1.63
2019-05-30T14:24:01.753Z,1.80
2019-05-30T14:26:49.151Z,1.80
2019-05-30T14:29:37.197Z,2.05
2019-05-30T14:32:24.909Z,2.00
2019-05-30T14:35:13.923Z,1.70
2019-05-30T14:38:00.318Z,1.90
2019-05-30T14:40:47.991Z,1.70
2019-05-30T14:43:35.626Z,1.57
2019-05-30T14:46:23.574Z,1.80
2019-05-30T14:49:12.662Z,1.80
2019-05-30T14:51:58.834Z,1.70
2019-05-30T14:54:46.816Z,2.10
2019-05-30T14:57:34.402Z,1.80
2019-05-30T15:00:21.662Z,2.22
2019-05-30T15:03:13.912Z,2.10
2019-05-30T15:05:56.856Z,2.10
2019-05-30T15:08:44.674Z,2.23
2019-05-30T15:11:32.294Z,2.27
2019-05-30T15:14:19.858Z,2.00
2019-05-30T15:17:07.978Z,2.45
2019-05-30T15:19:55.262Z,2.60
2019-05-30T15:22:42.814Z,2.60
2019-05-30T15:25:33.056Z,2.57
2019-05-30T15:28:20.556Z,2.87
2019-05-30T15:31:08.251Z,2.60
2019-05-30T15:33:55.695Z,2.50
2019-05-30T15:36:43.566Z,2.50
2019-05-30T15:39:33.014Z,3.10
2019-05-30T15:42:39.464Z,3.00
2019-05-30T15:45:26.562Z,3.43
2019-05-30T15:48:14.248Z,3.75
2019-05-30T15:51:02.090Z,3.43
2019-05-30T15:53:49.497Z,3.77
2019-05-30T15:56:36.922Z,4.23
2019-05-30T15:59:24.570Z,4.28
2019-05-30T16:02:11.949Z,4.35
2019-05-30T16:04:59.129Z,4.58
2019-05-30T16:07:46.665Z,4.55
2019-05-30T16:10:36.760Z,3.90
2019-05-30T16:13:22.015Z,4.40
2019-05-30T16:16:09.754Z,3.90
2019-05-30T16:18:57.149Z,4.05
2019-05-30T16:21:44.368Z,4.53
2019-05-30T16:24:31.495Z,4.10
2019-05-30T16:27:19.785Z,4.10
2019-05-30T16:30:06.456Z,4.37
2019-05-30T16:32:54.035Z,4.30
2019-05-30T16:35:41.968Z,4.40
2019-05-30T16:38:29.434Z,4.30
2019-05-30T16:41:16.798Z,4.33
2019-05-30T16:44:04.811Z,4.42
2019-05-30T16:46:52.246Z,4.73
2019-05-30T16:49:39.465Z,5.20
2019-05-30T16:52:27.313Z,4.47
2019-05-30T16:55:15.094Z,4.40
2019-05-30T16:58:01.642Z,4.83
2019-05-30T17:00:49.065Z,4.83
2019-05-30T17:03:36.257Z,4.63
2019-05-30T17:06:23.622Z,4.60
2019-05-30T17:09:11.068Z,4.77
2019-05-30T17:11:58.666Z,5.03
2019-05-30T17:14:46.232Z,4.30
2019-05-30T17:17:33.723Z,4.30
2019-05-30T17:20:21.115Z,4.63
2019-05-30T17:23:08.998Z,4.20
2019-05-30T17:25:56.356Z,4.93
2019-05-30T17:28:43.602Z,5.10
2019-05-30T17:31:30.939Z,4.80
2019-05-30T17:34:18.421Z,4.83
2019-05-30T17:37:06.277Z,4.63
2019-05-30T17:39:54.284Z,5.23
2019-05-30T17:42:42.282Z,4.83
2019-05-30T17:45:29.596Z,5.20
2019-05-30T17:48:17.440Z,4.93
2019-05-30T17:51:05.492Z,5.30
2019-05-30T17:53:53.019Z,6.13
2019-05-30T17:56:40.290Z,5.80
2019-05-30T17:59:28.506Z,6.10
2019-05-30T18:02:15.725Z,6.83
2019-05-30T18:05:03.055Z,7.27
2019-05-30T18:07:50.689Z,6.50
2019-05-30T18:10:52.787Z,7.27
2019-05-30T18:13:27.099Z,7.43
2019-05-30T18:16:13.630Z,6.70
2019-05-30T18:19:01.049Z,6.67
2019-05-30T18:21:49.011Z,6.37
2019-05-30T18:24:36.610Z,7.37
2019-05-30T18:27:25.847Z,7.27
2019-05-30T18:30:11.811Z,6.93
2019-05-30T18:32:59.915Z,6.50
2019-05-30T18:35:47.402Z,6.60
2019-05-30T18:38:34.789Z,6.43
2019-05-30T18:41:22.665Z,6.27
2019-05-30T18:44:09.609Z,6.13
2019-05-30T18:46:56.793Z,6.50
2019-05-30T18:49:44.309Z,7.30
2019-05-30T18:52:32.662Z,6.47
2019-05-30T18:55:19.892Z,6.30
2019-05-30T18:58:07.868Z,7.03
2019-05-30T19:00:55.337Z,6.87
2019-05-30T19:03:43.224Z,6.80
2019-05-30T19:06:31.817Z,7.07
2019-05-30T19:09:18.482Z,6.60
2019-05-30T19:12:06.422Z,6.80
2019-05-30T19:14:54.428Z,7.03
2019-05-30T19:17:41.722Z,6.50
2019-05-30T19:20:29.764Z,7.80
2019-05-30T19:23:17.104Z,7.08
2019-05-30T19:26:04.425Z,7.63
2019-05-30T19:28:52.118Z,7.30
2019-05-30T19:31:39.530Z,7.73
2019-05-30T19:34:27.069Z,7.40
2019-05-30T19:37:14.634Z,7.27
2019-05-30T19:40:02.526Z,6.97
2019-05-30T19:42:50.627Z,6.63
2019-05-30T19:45:38.589Z,7.27
2019-05-30T19:48:26.499Z,6.87
2019-05-30T19:51:13.666Z,7.30
2019-05-30T19:54:01.096Z,7.27
2019-05-30T19:56:48.464Z,7.20
2019-05-30T19:59:36.310Z,8.00
2019-05-30T20:02:23.237Z,8.40
2019-05-30T20:05:10.738Z,8.50
2019-05-30T20:07:58.070Z,8.80
2019-05-30T20:10:45.321Z,8.07
2019-05-30T20:13:33.365Z,8.40
2019-05-30T20:16:20.866Z,8.23
2019-05-30T20:19:08.210Z,8.40
2019-05-30T20:21:55.732Z,7.73
2019-05-30T20:24:43.136Z,7.67
2019-05-30T20:27:30.317Z,7.60
2019-05-30T20:30:17.918Z,8.17
2019-05-30T20:33:05.725Z,8.30
2019-05-30T20:35:53.743Z,7.90
2019-05-30T20:38:41.301Z,7.97
2019-05-30T20:41:28.807Z,7.80
2019-05-30T20:44:16.466Z,7.73
2019-05-30T20:47:04.419Z,7.53
2019-05-30T20:49:51.743Z,7.57
2019-05-30T20:52:42.234Z,7.80
2019-05-30T20:55:26.734Z,7.93
2019-05-30T20:58:14.381Z,8.23
2019-05-30T21:01:02.358Z,8.77
2019-05-30T21:03:49.834Z,8.43
2019-05-30T21:06:36.971Z,8.93
2019-05-30T21:09:29.025Z,8.60
2019-05-30T21:12:12.170Z,8.60
2019-05-30T21:14:59.681Z,8.37
2019-05-30T21:17:47.077Z,9.07
2019-05-30T21:20:35.798Z,8.77
2019-05-30T21:23:22.138Z,8.83
2019-05-30T21:26:09.410Z,8.60
2019-05-30T21:28:57.425Z,8.60
2019-05-30T21:31:45.635Z,9.17
2019-05-30T21:34:32.524Z,10.50
2019-05-30T21:37:19.785Z,9.83
2019-05-30T21:40:07.750Z,9.27
2019-05-30T21:43:04.631Z,9.60
2019-05-30T21:45:42.786Z,8.90
2019-05-30T21:48:30.417Z,9.53
2019-05-30T21:51:17.583Z,10.10
2019-05-30T21:54:05.026Z,9.83
2019-05-30T21:56:53.123Z,10.50
2019-05-30T21:59:42.308Z,10.57
2019-05-30T22:02:28.639Z,10.80
2019-05-30T22:05:16.015Z,11.73
2019-05-30T22:08:03.396Z,11.97
2019-05-30T22:10:51.745Z,10.50
2019-05-30T22:13:38.546Z,11.00
2019-05-30T22:16:26.137Z,11.00
2019-05-30T22:19:13.477Z,11.60
2019-05-30T22:22:00.828Z,11.07
2019-05-30T22:24:48.559Z,11.93
2019-05-30T22:27:35.974Z,11.00
2019-05-30T22:30:23.928Z,10.43
2019-05-30T22:33:11.364Z,11.03
2019-05-30T22:35:59.171Z,12.23
2019-05-30T22:38:46.834Z,12.67
2019-05-30T22:41:33.956Z,12.67
2019-05-30T22:44:21.389Z,11.50
2019-05-30T22:47:09.570Z,11.20
2019-05-30T22:49:57.075Z,11.20
2019-05-30T22:52:44.810Z,11.70
2019-05-30T22:55:31.849Z,11.60
2019-05-30T22:58:19.398Z,11.80
2019-05-30T23:01:06.700Z,11.43
2019-05-30T23:03:54.112Z,11.47
2019-05-30T23:06:41.417Z,11.17
2019-05-30T23:09:28.921Z,10.73
2019-05-30T23:12:16.251Z,10.13
2019-05-30T23:15:04.376Z,10.90
2019-05-30T23:17:52.905Z,10.97
2019-05-30T23:20:38.978Z,11.23
2019-05-30T23:23:26.937Z,10.73
2019-05-30T23:26:14.562Z,10.67
2019-05-30T23:29:02.055Z,10.30
2019-05-30T23:31:49.903Z,9.83
2019-05-30T23:34:36.901Z,10.60
2019-05-30T23:37:24.601Z,10.03
2019-05-30T23:40:12.089Z,10.47
2019-05-30T23:42:59.647Z,9.97
2019-05-30T23:45:47.656Z,10.07
2019-05-30T23:48:35.016Z,10.37
2019-05-30T23:51:22.277Z,10.13
2019-05-30T23:54:09.949Z,10.53
2019-05-30T23:56:58.617Z,10.50
2019-05-30T23:59:45.436Z,10.63
